createdAt,value
2018-11-07T00:01:13.924Z,20.08
2018-11-07T00:03:39.935Z,20.08
2018-11-07T00:06:05.948Z,20.07
2018-11-07T00:08:31.985Z,20.06
2018-11-07T00:10:57.929Z,20.07
2018-11-07T00:13:23.942Z,20.06
2018-11-07T00:15:49.946Z,20.06
2018-11-07T00:18:15.958Z,20.05
2018-11-07T00:20:41.964Z,20.05
2018-11-07T00:23:07.973Z,20.05
2018-11-07T00:25:33.957Z,20.05
2018-11-07T00:27:59.936Z,20.05
2018-11-07T00:30:25.948Z,20.05
2018-11-07T00:32:51.933Z,20.05
2018-11-07T00:35:18.094Z,20.04
2018-11-07T00:37:44.175Z,20.04
2018-11-07T00:40:10.218Z,20.03
2018-11-07T00:42:36.189Z,20.04
2018-11-07T00:45:02.194Z,20.05
2018-11-07T00:47:28.204Z,20.03
2018-11-07T00:49:54.179Z,20.03
2018-11-07T00:52:20.192Z,20.03
2018-11-07T00:54:46.175Z,20.02
2018-11-07T00:57:12.188Z,20.02
2018-11-07T00:59:38.216Z,20.02
2018-11-07T01:02:04.225Z,20.02
2018-11-07T01:04:30.207Z,20.02
2018-11-07T01:06:56.192Z,20.01
2018-11-07T01:09:22.246Z,20.01
2018-11-07T01:11:48.250Z,20.01
2018-11-07T01:14:14.231Z,20.00
2018-11-07T01:16:40.301Z,20.02
2018-11-07T01:19:06.222Z,20.00
2018-11-07T01:21:32.227Z,20.00
2018-11-07T01:23:58.243Z,19.99
2018-11-07T01:26:24.245Z,19.99
2018-11-07T01:28:50.256Z,19.99
2018-11-07T01:31:16.247Z,19.99
2018-11-07T01:33:42.255Z,19.98
2018-11-07T01:36:08.297Z,19.98
2018-11-07T01:38:34.300Z,19.98
2018-11-07T01:41:00.309Z,19.97
2018-11-07T01:43:26.324Z,19.98
2018-11-07T01:45:52.315Z,19.99
2018-11-07T01:48:18.370Z,19.98
2018-11-07T01:50:44.347Z,19.99
2018-11-07T01:53:10.361Z,19.99
2018-11-07T01:55:36.378Z,19.99
2018-11-07T01:58:02.372Z,19.99
2018-11-07T02:00:28.398Z,19.98
2018-11-07T02:02:54.401Z,19.99
2018-11-07T02:05:20.380Z,19.99
2018-11-07T02:07:46.392Z,19.98
2018-11-07T02:10:12.374Z,19.98
2018-11-07T02:12:38.357Z,19.98
2018-11-07T02:15:04.367Z,19.99
2018-11-07T02:17:30.377Z,19.99
2018-11-07T02:19:56.456Z,19.98
2018-11-07T02:22:22.413Z,19.98
2018-11-07T02:24:48.400Z,19.98
2018-11-07T02:27:14.410Z,19.98
2018-11-07T02:29:40.389Z,19.98
2018-11-07T02:32:06.403Z,19.97
2018-11-07T02:34:32.396Z,19.97
2018-11-07T02:36:58.402Z,19.97
2018-11-07T02:39:24.378Z,19.97
2018-11-07T02:41:50.378Z,19.97
2018-11-07T02:44:16.353Z,19.97
2018-11-07T02:46:42.356Z,19.97
2018-11-07T02:49:08.375Z,19.98
2018-11-07T02:51:34.379Z,19.97
2018-11-07T02:54:00.367Z,19.97
2018-11-07T02:56:26.374Z,19.97
2018-11-07T02:58:52.369Z,19.97
2018-11-07T03:01:18.471Z,19.96
2018-11-07T03:03:44.397Z,19.96
2018-11-07T03:06:10.411Z,19.96
2018-11-07T03:08:36.421Z,19.95
2018-11-07T03:11:02.434Z,19.96
2018-11-07T03:13:28.421Z,19.95
2018-11-07T03:15:54.431Z,19.96
2018-11-07T03:18:20.441Z,19.95
2018-11-07T03:20:46.483Z,19.95
2018-11-07T03:23:12.458Z,19.95
2018-11-07T03:25:38.512Z,19.95
2018-11-07T03:28:04.513Z,19.93
2018-11-07T03:30:30.512Z,19.94
2018-11-07T03:32:56.519Z,19.94
2018-11-07T03:35:22.526Z,19.94
2018-11-07T03:37:48.578Z,19.94
2018-11-07T03:40:14.591Z,19.94
2018-11-07T03:42:40.590Z,19.94
2018-11-07T03:45:06.754Z,19.94
2018-11-07T03:47:32.763Z,19.93
2018-11-07T03:49:58.744Z,19.93
2018-11-07T03:52:24.789Z,19.93
2018-11-07T03:54:50.797Z,19.93
2018-11-07T03:57:16.810Z,19.92
2018-11-07T03:59:42.826Z,19.93
2018-11-07T04:02:08.842Z,19.92
2018-11-07T04:04:34.890Z,19.92
2018-11-07T04:07:00.901Z,19.92
2018-11-07T04:09:26.889Z,19.91
2018-11-07T04:11:52.879Z,19.92
2018-11-07T04:14:18.885Z,19.92
2018-11-07T04:16:44.893Z,19.91
2018-11-07T04:19:10.911Z,19.91
2018-11-07T04:21:36.897Z,19.91
2018-11-07T04:24:02.906Z,19.92
2018-11-07T04:26:28.928Z,19.90
2018-11-07T04:28:54.945Z,19.91
2018-11-07T04:31:20.928Z,19.90
2018-11-07T04:33:46.923Z,19.90
2018-11-07T04:36:12.911Z,19.90
2018-11-07T04:38:38.892Z,19.90
2018-11-07T04:41:04.900Z,19.90
2018-11-07T04:43:30.883Z,19.90
2018-11-07T04:45:56.885Z,19.89
2018-11-07T04:48:22.900Z,19.89
2018-11-07T04:50:48.885Z,19.90
2018-11-07T04:53:14.889Z,19.89
2018-11-07T04:55:40.900Z,19.89
2018-11-07T04:58:06.942Z,19.90
2018-11-07T05:00:32.949Z,19.90
2018-11-07T05:02:58.936Z,19.89
2018-11-07T05:05:24.960Z,19.91
2018-11-07T05:07:50.997Z,19.92
2018-11-07T05:10:16.942Z,19.93
2018-11-07T05:12:42.937Z,19.93
2018-11-07T05:15:08.943Z,19.95
2018-11-07T05:17:34.991Z,19.96
2018-11-07T05:20:00.979Z,19.97
2018-11-07T05:22:26.962Z,19.97
2018-11-07T05:24:52.955Z,19.97
2018-11-07T05:27:18.978Z,19.96
2018-11-07T05:29:45.037Z,19.96
2018-11-07T05:32:11.025Z,19.96
2018-11-07T05:34:37.033Z,19.96
2018-11-07T05:37:03.081Z,19.96
2018-11-07T05:39:29.086Z,19.95
2018-11-07T05:41:55.066Z,19.94
2018-11-07T05:44:21.121Z,19.94
2018-11-07T05:46:47.131Z,19.97
2018-11-07T05:49:13.815Z,19.98
2018-11-07T05:51:39.711Z,19.98
2018-11-07T05:54:05.710Z,19.97
2018-11-07T05:56:31.711Z,19.95
2018-11-07T05:58:57.744Z,19.94
2018-11-07T06:01:23.800Z,19.95
2018-11-07T06:03:50.090Z,19.93
2018-11-07T06:06:16.076Z,19.92
2018-11-07T06:08:42.056Z,19.92
2018-11-07T06:11:08.076Z,19.92
2018-11-07T06:13:34.062Z,19.94
2018-11-07T06:16:00.140Z,19.93
2018-11-07T06:18:26.087Z,19.95
2018-11-07T06:20:52.081Z,19.94
2018-11-07T06:23:18.070Z,19.97
2018-11-07T06:25:44.114Z,19.95
2018-11-07T06:28:10.195Z,19.95
2018-11-07T06:30:36.208Z,19.95
2018-11-07T06:33:02.244Z,19.97
2018-11-07T06:35:28.279Z,19.96
2018-11-07T06:37:54.222Z,19.96
2018-11-07T06:40:20.232Z,19.96
2018-11-07T06:42:46.297Z,19.96
2018-11-07T06:45:12.271Z,19.96
2018-11-07T06:47:38.370Z,19.97
2018-11-07T06:50:06.126Z,19.97
2018-11-07T06:52:32.113Z,19.99
2018-11-07T06:54:58.138Z,19.99
2018-11-07T06:57:24.129Z,19.98
2018-11-07T06:59:50.143Z,19.99
2018-11-07T07:02:16.146Z,20.00
2018-11-07T07:04:42.323Z,19.99
2018-11-07T07:07:08.352Z,20.00
2018-11-07T07:09:34.370Z,19.99
2018-11-07T07:12:00.393Z,19.99
2018-11-07T07:14:26.397Z,20.03
2018-11-07T07:16:52.381Z,20.02
2018-11-07T07:19:18.414Z,20.03
2018-11-07T07:21:44.442Z,20.02
2018-11-07T07:24:10.468Z,20.02
2018-11-07T07:26:36.480Z,20.02
2018-11-07T07:29:02.463Z,20.04
2018-11-07T07:31:28.452Z,20.05
2018-11-07T07:33:54.511Z,20.04
2018-11-07T07:36:20.505Z,20.06
2018-11-07T07:38:46.488Z,20.06
2018-11-07T07:41:12.593Z,20.07
2018-11-07T07:43:38.601Z,20.10
2018-11-07T07:46:04.619Z,20.13
2018-11-07T07:48:30.636Z,20.30
2018-11-07T07:50:56.633Z,20.41
2018-11-07T07:53:22.622Z,20.45
2018-11-07T07:55:48.667Z,20.43
2018-11-07T07:58:14.763Z,20.39
2018-11-07T08:00:40.797Z,20.52
2018-11-07T08:03:06.817Z,20.45
2018-11-07T08:05:32.858Z,20.41
2018-11-07T08:07:58.857Z,20.34
2018-11-07T08:10:24.873Z,20.29
2018-11-07T08:12:50.878Z,20.29
2018-11-07T08:15:16.866Z,20.29
2018-11-07T08:17:42.856Z,20.29
2018-11-07T08:20:08.896Z,20.27
2018-11-07T08:22:34.861Z,20.28
2018-11-07T08:25:01.025Z,20.25
2018-11-07T08:27:27.019Z,20.24
2018-11-07T08:29:53.017Z,20.23
2018-11-07T08:32:19.014Z,20.22
2018-11-07T08:34:45.033Z,20.21
2018-11-07T08:37:11.066Z,20.21
2018-11-07T08:39:37.093Z,20.21
2018-11-07T08:42:03.129Z,20.20
2018-11-07T08:44:29.112Z,20.21
2018-11-07T08:46:55.100Z,20.20
2018-11-07T08:49:21.091Z,20.20
2018-11-07T08:51:47.091Z,20.19
2018-11-07T08:54:13.103Z,20.18
2018-11-07T08:56:39.145Z,20.18
2018-11-07T08:59:05.204Z,20.17
2018-11-07T09:01:31.218Z,20.20
2018-11-07T09:03:57.162Z,20.18
2018-11-07T09:06:23.150Z,20.17
2018-11-07T09:08:49.178Z,20.17
2018-11-07T09:11:15.195Z,20.18
2018-11-07T09:13:41.209Z,20.19
2018-11-07T09:16:07.207Z,20.20
2018-11-07T09:18:33.185Z,20.21
2018-11-07T09:20:59.177Z,20.22
2018-11-07T09:23:25.172Z,20.23
2018-11-07T09:25:51.195Z,20.26
2018-11-07T09:28:17.202Z,20.25
2018-11-07T09:30:43.196Z,20.25
2018-11-07T09:33:09.185Z,20.25
2018-11-07T09:35:35.198Z,20.25
2018-11-07T09:38:01.210Z,20.24
2018-11-07T09:40:27.232Z,20.23
2018-11-07T09:42:53.224Z,20.25
2018-11-07T09:45:19.341Z,20.30
2018-11-07T09:47:45.402Z,20.32
2018-11-07T09:50:11.443Z,20.34
2018-11-07T09:52:37.463Z,20.36
2018-11-07T09:55:03.496Z,20.37
2018-11-07T09:57:29.530Z,20.40
2018-11-07T09:59:55.506Z,20.40
2018-11-07T10:02:21.500Z,20.37
2018-11-07T10:04:47.507Z,20.37
2018-11-07T10:07:13.515Z,20.37
2018-11-07T10:09:39.501Z,20.39
2018-11-07T10:12:05.549Z,20.44
2018-11-07T10:14:31.533Z,20.47
2018-11-07T10:16:57.529Z,20.53
2018-11-07T10:19:23.561Z,20.53
2018-11-07T10:21:49.538Z,20.54
2018-11-07T10:24:15.525Z,20.55
2018-11-07T10:26:41.589Z,20.56
2018-11-07T10:29:07.683Z,20.58
2018-11-07T10:31:33.545Z,20.58
2018-11-07T10:33:59.541Z,20.59
2018-11-07T10:36:25.554Z,20.63
2018-11-07T10:38:51.631Z,20.65
2018-11-07T10:41:17.529Z,20.69
2018-11-07T10:43:43.559Z,20.66
2018-11-07T10:46:09.575Z,20.68
2018-11-07T10:48:35.491Z,20.69
2018-11-07T10:51:01.504Z,20.69
2018-11-07T10:53:27.549Z,20.75
2018-11-07T10:55:53.526Z,20.75
2018-11-07T10:58:19.531Z,20.74
2018-11-07T11:00:45.508Z,20.78
2018-11-07T11:03:11.523Z,20.82
2018-11-07T11:05:37.536Z,20.81
2018-11-07T11:08:03.544Z,20.83
2018-11-07T11:10:29.590Z,20.85
2018-11-07T11:12:55.540Z,20.84
2018-11-07T11:15:21.530Z,20.84
2018-11-07T11:17:47.560Z,20.84
2018-11-07T11:20:13.571Z,20.84
2018-11-07T11:22:39.587Z,20.84
2018-11-07T11:25:05.584Z,20.89
2018-11-07T11:27:31.591Z,20.89
2018-11-07T11:29:57.590Z,20.89
2018-11-07T11:32:23.604Z,20.89
2018-11-07T11:34:49.733Z,20.92
2018-11-07T11:37:15.658Z,20.92
2018-11-07T11:39:41.663Z,20.95
2018-11-07T11:42:07.653Z,20.97
2018-11-07T11:44:33.657Z,20.98
2018-11-07T11:46:59.683Z,20.99
2018-11-07T11:49:25.817Z,21.00
2018-11-07T11:51:51.790Z,21.03
2018-11-07T11:54:17.806Z,21.05
2018-11-07T11:56:43.831Z,21.06
2018-11-07T11:59:09.941Z,21.09
2018-11-07T12:01:35.851Z,21.14
2018-11-07T12:04:01.853Z,21.14
2018-11-07T12:06:27.898Z,21.13
2018-11-07T12:08:53.887Z,21.14
2018-11-07T12:11:19.874Z,21.16
2018-11-07T12:13:45.829Z,21.18
2018-11-07T12:16:11.821Z,21.23
2018-11-07T12:18:37.821Z,21.25
2018-11-07T12:21:03.848Z,21.28
2018-11-07T12:23:29.847Z,21.31
2018-11-07T12:25:55.795Z,21.31
2018-11-07T12:28:21.875Z,21.35
2018-11-07T12:30:47.869Z,21.40
2018-11-07T12:33:13.936Z,21.39
2018-11-07T12:35:39.898Z,21.49
2018-11-07T12:38:05.890Z,21.41
2018-11-07T12:40:31.878Z,21.46
2018-11-07T12:42:57.961Z,21.52
2018-11-07T12:45:23.873Z,21.48
2018-11-07T12:47:49.896Z,21.46
2018-11-07T12:50:15.976Z,21.49
2018-11-07T12:52:41.923Z,21.52
2018-11-07T12:55:07.914Z,21.51
2018-11-07T12:57:33.934Z,21.50
2018-11-07T12:59:59.898Z,21.49
2018-11-07T13:02:26.014Z,21.51
2018-11-07T13:04:52.027Z,21.51
2018-11-07T13:07:18.021Z,21.46
2018-11-07T13:09:44.045Z,21.45
2018-11-07T13:12:10.083Z,21.45
2018-11-07T13:14:36.061Z,21.44
2018-11-07T13:17:02.050Z,21.41
2018-11-07T13:19:28.127Z,21.40
2018-11-07T13:21:54.194Z,21.39
2018-11-07T13:24:20.208Z,21.36
2018-11-07T13:26:46.222Z,21.35
2018-11-07T13:29:12.226Z,21.35
2018-11-07T13:31:38.241Z,21.33
2018-11-07T13:34:04.266Z,21.32
2018-11-07T13:36:30.254Z,21.32
2018-11-07T13:38:56.667Z,21.29
2018-11-07T13:41:22.243Z,21.28
2018-11-07T13:43:48.232Z,21.26
2018-11-07T13:46:14.242Z,21.24
2018-11-07T13:48:40.251Z,21.22
2018-11-07T13:51:06.244Z,21.20
2018-11-07T13:53:32.251Z,21.22
2018-11-07T13:55:58.242Z,21.20
2018-11-07T13:58:24.323Z,21.18
2018-11-07T14:00:50.330Z,21.13
2018-11-07T14:03:16.359Z,21.10
2018-11-07T14:05:42.464Z,21.07
2018-11-07T14:08:08.443Z,21.04
2018-11-07T14:10:34.496Z,21.02
2018-11-07T14:13:00.465Z,21.01
2018-11-07T14:15:26.503Z,20.97
2018-11-07T14:17:52.505Z,20.96
2018-11-07T14:20:18.558Z,20.96
2018-11-07T14:22:44.572Z,20.98
2018-11-07T14:25:10.552Z,20.97
2018-11-07T14:27:36.693Z,20.98
2018-11-07T14:30:02.575Z,21.00
2018-11-07T14:32:28.584Z,20.96
2018-11-07T14:34:54.643Z,20.95
2018-11-07T14:37:20.628Z,20.92
2018-11-07T14:39:46.638Z,20.91
2018-11-07T14:42:12.625Z,20.89
2018-11-07T14:44:38.677Z,20.90
2018-11-07T14:47:04.732Z,20.89
2018-11-07T14:49:30.676Z,20.87
2018-11-07T14:51:56.681Z,20.87
2018-11-07T14:54:22.751Z,20.87
2018-11-07T14:56:48.711Z,20.86
2018-11-07T14:59:14.714Z,20.87
2018-11-07T15:01:40.786Z,20.84
2018-11-07T15:04:06.712Z,20.85
2018-11-07T15:06:32.729Z,20.85
2018-11-07T15:08:58.771Z,20.81
2018-11-07T15:11:24.789Z,20.79
2018-11-07T15:13:50.799Z,20.79
2018-11-07T15:16:16.816Z,20.79
2018-11-07T15:18:42.835Z,20.77
2018-11-07T15:21:08.851Z,20.76
2018-11-07T15:23:34.860Z,20.76
2018-11-07T15:26:00.848Z,20.74
2018-11-07T15:28:26.882Z,20.74
2018-11-07T15:30:52.892Z,20.77
2018-11-07T15:33:18.906Z,20.76
2018-11-07T15:35:44.893Z,20.74
2018-11-07T15:38:10.915Z,20.72
2018-11-07T15:40:36.867Z,20.71
2018-11-07T15:43:02.850Z,20.70
2018-11-07T15:45:28.875Z,20.69
2018-11-07T15:47:54.926Z,20.69
2018-11-07T15:50:20.931Z,20.68
2018-11-07T15:52:46.953Z,20.68
2018-11-07T15:55:12.952Z,20.67
2018-11-07T15:57:38.995Z,20.67
2018-11-07T16:00:05.050Z,20.65
2018-11-07T16:02:30.994Z,20.65
2018-11-07T16:04:57.055Z,20.64
2018-11-07T16:07:23.057Z,20.63
2018-11-07T16:09:49.036Z,20.62
2018-11-07T16:12:15.036Z,20.61
2018-11-07T16:14:41.043Z,20.60
2018-11-07T16:17:07.052Z,20.60
2018-11-07T16:19:33.062Z,20.60
2018-11-07T16:21:59.086Z,20.59
2018-11-07T16:24:25.100Z,20.58
2018-11-07T16:26:51.092Z,20.57
2018-11-07T16:29:17.106Z,20.57
2018-11-07T16:31:43.129Z,20.56
2018-11-07T16:34:09.154Z,20.55
2018-11-07T16:36:37.852Z,20.54
2018-11-07T16:39:03.921Z,20.54
2018-11-07T16:41:30.025Z,20.55
2018-11-07T16:43:55.892Z,20.57
2018-11-07T16:46:21.918Z,20.54
2018-11-07T16:48:47.934Z,20.52
2018-11-07T16:51:13.916Z,20.50
2018-11-07T16:53:39.961Z,20.50
2018-11-07T16:56:05.948Z,20.49
2018-11-07T16:58:31.966Z,20.50
2018-11-07T17:00:57.982Z,20.49
2018-11-07T17:03:26.721Z,20.49
2018-11-07T17:05:52.725Z,20.48
2018-11-07T17:08:18.787Z,20.47
2018-11-07T17:10:44.815Z,20.48
2018-11-07T17:13:15.007Z,20.47
2018-11-07T17:15:41.126Z,20.46
2018-11-07T17:18:15.252Z,20.46
2018-11-07T17:20:46.374Z,20.46
2018-11-07T17:23:18.526Z,20.45
2018-11-07T17:25:38.506Z,20.47
2018-11-07T17:28:04.488Z,20.50
2018-11-07T17:30:30.482Z,20.56
2018-11-07T17:32:56.470Z,20.55
2018-11-07T17:35:22.460Z,20.56
2018-11-07T17:37:48.444Z,20.56
2018-11-07T17:40:14.453Z,20.58
2018-11-07T17:42:40.466Z,20.58
2018-11-07T17:45:06.455Z,20.59
2018-11-07T17:47:32.446Z,20.63
2018-11-07T17:49:58.460Z,20.68
2018-11-07T17:52:24.744Z,20.69
2018-11-07T17:54:50.737Z,20.72
2018-11-07T17:57:16.730Z,20.74
2018-11-07T17:59:42.714Z,20.76
2018-11-07T18:02:08.728Z,20.77
2018-11-07T18:04:34.713Z,20.76
2018-11-07T18:07:01.796Z,20.79
2018-11-07T18:09:28.513Z,20.80
2018-11-07T18:11:54.426Z,20.83
2018-11-07T18:14:20.433Z,20.80
2018-11-07T18:16:46.434Z,20.84
2018-11-07T18:19:12.523Z,20.83
2018-11-07T18:21:38.441Z,20.81
2018-11-07T18:24:04.491Z,20.82
2018-11-07T18:26:30.476Z,20.83
2018-11-07T18:28:56.477Z,20.87
2018-11-07T18:31:22.467Z,20.89
2018-11-07T18:33:49.281Z,20.92
2018-11-07T18:36:15.613Z,20.88
2018-11-07T18:38:42.430Z,20.88
2018-11-07T18:41:08.463Z,20.91
2018-11-07T18:43:34.727Z,20.91
2018-11-07T18:46:00.715Z,20.93
2018-11-07T18:48:26.817Z,20.93
2018-11-07T18:50:52.897Z,20.89
2018-11-07T18:53:19.084Z,20.92
2018-11-07T18:55:45.157Z,20.94
2018-11-07T18:58:11.144Z,20.99
2018-11-07T19:00:37.203Z,20.97
2018-11-07T19:03:03.197Z,21.03
2018-11-07T19:05:29.205Z,21.04
2018-11-07T19:07:55.739Z,21.06
2018-11-07T19:10:21.694Z,21.04
2018-11-07T19:12:48.204Z,21.01
2018-11-07T19:15:14.267Z,20.98
2018-11-07T19:17:40.311Z,20.99
2018-11-07T19:20:06.318Z,21.02
2018-11-07T19:22:32.347Z,21.00
2018-11-07T19:24:58.324Z,21.01
2018-11-07T19:27:24.835Z,21.03
2018-11-07T19:29:50.780Z,21.03
2018-11-07T19:32:16.788Z,21.02
2018-11-07T19:34:46.315Z,21.02
2018-11-07T19:37:12.350Z,21.02
2018-11-07T19:39:39.126Z,21.02
2018-11-07T19:42:05.107Z,21.03
2018-11-07T19:44:31.694Z,21.04
2018-11-07T19:46:58.626Z,21.06
2018-11-07T19:49:25.488Z,21.09
2018-11-07T19:51:51.738Z,21.06
2018-11-07T19:54:17.874Z,21.04
2018-11-07T19:56:43.857Z,21.04
2018-11-07T19:59:09.869Z,21.06
2018-11-07T20:01:35.873Z,21.10
2018-11-07T20:04:01.892Z,21.10
2018-11-07T20:06:27.881Z,21.12
2018-11-07T20:08:53.874Z,21.10
2018-11-07T20:11:19.885Z,21.08
2018-11-07T20:13:45.899Z,21.09
2018-11-07T20:16:11.905Z,21.08
2018-11-07T20:18:37.921Z,21.10
2018-11-07T20:21:03.904Z,21.10
2018-11-07T20:23:29.901Z,21.10
2018-11-07T20:25:55.902Z,21.09
2018-11-07T20:28:21.916Z,21.08
2018-11-07T20:30:47.905Z,21.09
2018-11-07T20:33:13.887Z,21.09
2018-11-07T20:35:40.011Z,21.11
2018-11-07T20:38:05.929Z,21.10
2018-11-07T20:40:31.941Z,21.10
2018-11-07T20:42:57.951Z,21.11
2018-11-07T20:45:23.993Z,21.10
2018-11-07T20:47:50.032Z,21.13
2018-11-07T20:50:16.024Z,21.10
2018-11-07T20:52:42.042Z,21.09
2018-11-07T20:55:08.051Z,21.10
2018-11-07T20:57:34.033Z,21.11
2018-11-07T21:00:00.018Z,21.10
2018-11-07T21:02:26.004Z,21.10
2018-11-07T21:04:52.058Z,21.06
2018-11-07T21:07:18.054Z,21.05
2018-11-07T21:09:44.066Z,21.05
2018-11-07T21:12:10.078Z,21.02
2018-11-07T21:14:36.097Z,21.00
2018-11-07T21:17:03.061Z,20.99
2018-11-07T21:19:29.001Z,20.97
2018-11-07T21:21:54.983Z,20.98
2018-11-07T21:24:20.973Z,20.97
2018-11-07T21:26:46.954Z,20.96
2018-11-07T21:29:12.962Z,20.95
2018-11-07T21:31:38.965Z,20.93
2018-11-07T21:34:05.009Z,20.94
2018-11-07T21:36:31.013Z,20.92
2018-11-07T21:38:57.019Z,20.92
2018-11-07T21:41:23.030Z,20.93
2018-11-07T21:43:49.062Z,20.92
2018-11-07T21:46:15.030Z,20.92
2018-11-07T21:48:41.034Z,20.90
2018-11-07T21:51:07.042Z,20.91
2018-11-07T21:53:33.029Z,20.91
2018-11-07T21:55:59.040Z,20.89
2018-11-07T21:58:25.045Z,20.89
2018-11-07T22:00:51.033Z,20.89
2018-11-07T22:03:17.011Z,20.90
2018-11-07T22:05:43.020Z,20.89
2018-11-07T22:08:09.012Z,20.88
2018-11-07T22:10:35.004Z,20.89
2018-11-07T22:13:01.018Z,20.88
2018-11-07T22:15:27.036Z,20.88
2018-11-07T22:17:53.013Z,20.88
2018-11-07T22:20:19.000Z,20.86
2018-11-07T22:22:45.036Z,20.85
2018-11-07T22:25:11.042Z,20.86
2018-11-07T22:27:37.053Z,20.84
2018-11-07T22:30:03.104Z,20.87
2018-11-07T22:32:29.091Z,20.86
2018-11-07T22:34:55.093Z,20.85
2018-11-07T22:37:21.102Z,20.85
2018-11-07T22:39:47.117Z,20.86
2018-11-07T22:42:13.095Z,20.85
2018-11-07T22:44:39.084Z,20.86
2018-11-07T22:47:05.071Z,20.87
2018-11-07T22:49:31.078Z,20.86
2018-11-07T22:51:57.084Z,20.85
2018-11-07T22:54:23.092Z,20.84
2018-11-07T22:56:49.112Z,20.85
2018-11-07T22:59:15.112Z,20.84
2018-11-07T23:01:41.114Z,20.85
2018-11-07T23:04:07.098Z,20.84
2018-11-07T23:06:33.096Z,20.84
2018-11-07T23:08:59.138Z,20.83
2018-11-07T23:11:25.157Z,20.85
2018-11-07T23:13:51.184Z,20.85
2018-11-07T23:16:17.172Z,20.82
2018-11-07T23:18:43.196Z,20.82
2018-11-07T23:21:09.196Z,20.83
2018-11-07T23:23:35.220Z,20.81
2018-11-07T23:26:01.226Z,20.79
2018-11-07T23:28:27.212Z,20.80
2018-11-07T23:30:53.198Z,20.81
2018-11-07T23:33:19.211Z,20.84
2018-11-07T23:35:45.217Z,20.82
2018-11-07T23:38:11.234Z,20.82
2018-11-07T23:40:37.240Z,20.84
2018-11-07T23:43:03.263Z,20.82
2018-11-07T23:45:29.275Z,20.84
2018-11-07T23:47:55.287Z,20.83
2018-11-07T23:50:21.300Z,20.83
2018-11-07T23:52:47.314Z,20.82
2018-11-07T23:55:13.327Z,20.84
2018-11-07T23:57:39.362Z,20.84
